West Lafayette, Ohio
Current Conditions -  °F | °C
As of 7:08 PM on Sunday 25 Jan 2015 (Local Time) from KPHD Reporting Station
Light Snow Light Snow  
Wind Chill: 26°   Ceiling: 1200
Heat Index: 32°   Visibility: 1.5mi
Dew Point: 28°   Wind: 7mph
Humidity: 85%   Direction: 40°NE
Pressure: 29.8"   Gusts: NA
Location:  40.28°N, 81.75°W
Report Text: KPHD 260008Z AUTO 04006KT 1 1/2SM -SN BR SCT007 BKN012 OVC021 00/M02 A2980 RMK AO2 P0000 T00001022
Loading
Personal Weather Stations






























Interactive Weather Map New forecast layout! Learn more

10-Day Weather Forecast

Advertisements
Track Severe Weather on mobile